Time;durP1;ratioP1;P1;durP2;ratioP2;P2;SDS_P1;SDS_P2;PMS_P1;PMS_P2;Temp;Humidity;BMP_temperature;BMP_pressure;BME280_temperature;BME280_humidity;BME280_pressure;Samples;Min_cycle;Max_cycle;Signal;HPM_P1;HPM_P2
2023/09/03 00:01:44;;;;;;;0.57;0.57;;;13.60;99.90;;;;;;5096476;28;20418;-79
2023/09/03 00:04:10;;;;;;;0.30;0.30;;;13.60;99.90;;;;;;5096381;28;20040;-79
2023/09/03 00:06:35;;;;;;;0.40;0.40;;;13.50;99.90;;;;;;5096152;28;20040;-79
2023/09/03 00:09:03;;;;;;;0.50;0.50;;;13.50;99.90;;;;;;5095815;28;20063;-78
2023/09/03 00:11:28;;;;;;;0.32;0.32;;;13.50;99.90;;;;;;5094623;28;20425;-78
2023/09/03 00:13:54;;;;;;;0.40;0.40;;;13.40;99.90;;;;;;5096059;28;20094;-79
2023/09/03 00:16:19;;;;;;;0.35;0.35;;;13.40;99.90;;;;;;5096151;28;20039;-79
2023/09/03 00:18:47;;;;;;;0.53;0.53;;;13.40;99.90;;;;;;5096072;28;20046;-79
2023/09/03 00:21:13;;;;;;;0.40;0.40;;;13.30;99.90;;;;;;5096262;28;20088;-78
2023/09/03 00:23:39;;;;;;;0.43;0.43;;;13.30;99.90;;;;;;5096009;28;20028;-79
2023/09/03 00:26:05;;;;;;;0.40;0.40;;;13.20;99.90;;;;;;5095875;28;20040;-79
2023/09/03 00:28:31;;;;;;;0.40;0.40;;;13.30;99.90;;;;;;5096244;28;20051;-79
2023/09/03 00:31:01;;;;;;;0.40;0.40;;;13.30;99.90;;;;;;5096355;28;20036;-78
2023/09/03 00:33:27;;;;;;;0.80;0.40;;;13.20;99.90;;;;;;5094423;28;20130;-78
2023/09/03 00:35:53;;;;;;;;;;;13.10;99.90;;;;;;5096255;28;20044;-79
2023/09/03 00:38:19;;;;;;;0.60;0.60;;;13.10;99.90;;;;;;5095715;28;19938;-78
2023/09/03 00:40:44;;;;;;;0.40;0.40;;;13.10;99.90;;;;;;5095377;28;20059;-78
2023/09/03 00:43:10;;;;;;;0.50;0.50;;;13.00;99.90;;;;;;5095570;28;20519;-78
2023/09/03 00:45:36;;;;;;;0.40;0.40;;;13.00;99.90;;;;;;5095559;28;20035;-78
2023/09/03 00:48:02;;;;;;;0.50;0.50;;;13.00;99.90;;;;;;5095776;28;20416;-79
2023/09/03 00:50:30;;;;;;;0.50;0.40;;;12.90;99.90;;;;;;5095260;28;20085;-79
2023/09/03 00:52:55;;;;;;;0.60;0.47;;;12.90;99.90;;;;;;5095336;28;20284;-79
2023/09/03 00:55:22;;;;;;;0.40;0.40;;;12.90;99.90;;;;;;5095267;28;20036;-79
2023/09/03 00:57:48;;;;;;;0.40;0.40;;;12.90;99.90;;;;;;5095718;28;20040;-78
2023/09/03 01:00:15;;;;;;;0.40;0.40;;;12.80;99.90;;;;;;5095668;28;20098;-78
2023/09/03 01:02:44;;;;;;;;;;;12.80;99.90;;;;;;5095836;28;20084;-78
2023/09/03 01:05:10;;;;;;;1.20;0.50;;;12.90;99.90;;;;;;5095297;28;19923;-79
2023/09/03 01:07:36;;;;;;;0.30;0.30;;;12.80;99.90;;;;;;5095277;28;20052;-79
2023/09/03 01:10:02;;;;;;;0.40;0.40;;;12.80;99.90;;;;;;5095007;28;20395;-79
2023/09/03 01:12:35;;;;;;;0.70;0.70;;;12.80;99.90;;;;;;5094957;28;20046;-78
2023/09/03 01:15:14;;;;;;;0.40;0.40;;;12.70;99.90;;;;;;5094842;28;20043;-78
2023/09/03 01:17:48;;;;;;;0.57;0.57;;;12.70;99.90;;;;;;5094967;28;20047;-78
2023/09/03 01:20:28;;;;;;;0.60;0.60;;;12.70;99.90;;;;;;5094872;28;20090;-78
2023/09/03 01:23:00;;;;;;;0.30;0.30;;;12.60;99.90;;;;;;5095017;28;20055;-79
2023/09/03 01:25:53;;;;;;;0.40;0.40;;;12.70;99.90;;;;;;5095118;28;20475;-78
2023/09/03 01:28:31;;;;;;;0.50;0.50;;;12.60;99.90;;;;;;5094746;28;20047;-79
2023/09/03 01:31:09;;;;;;;0.40;0.40;;;12.60;99.90;;;;;;5094695;28;20048;-78
2023/09/03 01:33:38;;;;;;;0.50;0.50;;;12.60;99.90;;;;;;5094571;28;20082;-79
2023/09/03 01:36:06;;;;;;;0.30;0.30;;;12.70;99.90;;;;;;5094937;28;20111;-79
2023/09/03 01:38:33;;;;;;;0.40;0.40;;;12.50;99.90;;;;;;5094594;28;20061;-79
2023/09/03 01:40:59;;;;;;;0.68;0.50;;;12.50;99.90;;;;;;5094458;28;20044;-78
2023/09/03 01:43:25;;;;;;;0.50;0.50;;;13.10;99.90;;;;;;5094344;28;20079;-79
2023/09/03 01:46:08;;;;;;;0.30;0.30;;;12.60;99.90;;;;;;5094577;28;20047;-78
2023/09/03 01:48:54;;;;;;;0.32;0.32;;;12.50;99.90;;;;;;5094555;28;20349;-78
2023/09/03 01:51:36;;;;;;;0.50;0.50;;;12.50;99.90;;;;;;5094663;28;20040;-78
2023/09/03 01:54:08;;;;;;;0.35;0.35;;;12.50;99.90;;;;;;5094329;28;20047;-77
2023/09/03 01:56:39;;;;;;;0.40;0.40;;;12.40;99.90;;;;;;5094236;28;20048;-77
2023/09/03 01:59:18;;;;;;;0.60;0.60;;;12.40;99.90;;;;;;5094205;28;20039;-78
2023/09/03 02:01:46;;;;;;;0.32;0.32;;;12.40;99.90;;;;;;5093890;28;20127;-77
2023/09/03 02:04:12;;;;;;;0.73;0.40;;;12.40;99.90;;;;;;5093719;28;20135;-77
2023/09/03 02:06:37;;;;;;;0.40;0.40;;;12.40;99.90;;;;;;5094497;28;20511;-78
2023/09/03 02:09:03;;;;;;;0.50;0.50;;;12.40;99.90;;;;;;5094009;28;20102;-77
2023/09/03 02:11:29;;;;;;;0.50;0.50;;;12.40;99.90;;;;;;5093906;28;20066;-77
2023/09/03 02:13:55;;;;;;;0.40;0.40;;;12.40;99.90;;;;;;5094102;28;20043;-77
2023/09/03 02:16:21;;;;;;;0.38;0.38;;;12.40;99.90;;;;;;5094287;28;20519;-78
2023/09/03 02:18:46;;;;;;;0.47;0.47;;;12.40;99.90;;;;;;5094012;28;20036;-78
2023/09/03 02:21:12;;;;;;;0.40;0.40;;;12.40;99.90;;;;;;5094562;28;20040;-77
2023/09/03 02:23:37;;;;;;;0.60;0.60;;;12.40;99.90;;;;;;5094226;28;20044;-77
2023/09/03 02:26:03;;;;;;;0.65;0.63;;;12.40;99.90;;;;;;5094312;28;20044;-78
2023/09/03 02:28:29;;;;;;;1.27;0.82;;;12.40;99.90;;;;;;5094496;28;20169;-78
2023/09/03 02:30:55;;;;;;;0.40;0.40;;;12.30;99.90;;;;;;5094013;28;20040;-77
2023/09/03 02:33:22;;;;;;;0.40;0.40;;;12.30;99.90;;;;;;5094003;28;20051;-77
2023/09/03 02:35:48;;;;;;;0.35;0.35;;;12.30;99.90;;;;;;5094207;28;20048;-78
2023/09/03 02:38:13;;;;;;;0.63;0.63;;;12.30;99.90;;;;;;5093754;28;20050;-78
2023/09/03 02:40:39;;;;;;;0.40;0.40;;;12.30;99.90;;;;;;5094127;28;20050;-77
2023/09/03 02:43:05;;;;;;;0.30;0.30;;;12.20;99.90;;;;;;5093848;28;20112;-78
2023/09/03 02:45:31;;;;;;;0.43;0.43;;;12.20;99.90;;;;;;5094032;28;20039;-78
2023/09/03 02:47:56;;;;;;;0.55;0.55;;;12.20;99.90;;;;;;5092991;28;20040;-76
2023/09/03 02:50:22;;;;;;;0.40;0.40;;;12.20;99.90;;;;;;5093658;28;20040;-78
2023/09/03 02:52:48;;;;;;;0.40;0.40;;;12.10;99.90;;;;;;5093632;28;20043;-80
2023/09/03 02:55:14;;;;;;;0.55;0.55;;;12.50;99.90;;;;;;5093551;28;20075;-78
2023/09/03 02:57:40;;;;;;;0.57;0.57;;;12.10;99.90;;;;;;5092607;28;20051;-78
2023/09/03 03:00:06;;;;;;;0.60;0.60;;;12.10;99.90;;;;;;5093576;28;20387;-79
2023/09/03 03:02:32;;;;;;;0.68;0.68;;;12.10;99.90;;;;;;5093135;28;20418;-78
2023/09/03 03:04:58;;;;;;;0.50;0.50;;;12.10;99.90;;;;;;5093540;28;20452;-78
2023/09/03 03:07:25;;;;;;;0.60;0.60;;;12.00;99.90;;;;;;5093648;28;20044;-79
2023/09/03 03:09:51;;;;;;;0.50;0.50;;;12.00;99.90;;;;;;5093962;28;20534;-78
2023/09/03 03:12:18;;;;;;;1.42;0.77;;;12.00;99.90;;;;;;5094254;28;20039;-79
2023/09/03 03:14:44;;;;;;;0.40;0.40;;;12.00;99.90;;;;;;5096426;28;20122;-78
2023/09/03 03:17:10;;;;;;;0.50;0.50;;;12.10;99.90;;;;;;5097486;28;20082;-78
2023/09/03 03:19:35;;;;;;;0.50;0.50;;;12.00;99.90;;;;;;5096912;28;20040;-79
2023/09/03 03:22:01;;;;;;;0.53;0.53;;;12.60;99.90;;;;;;5097347;28;20131;-79
2023/09/03 03:24:26;;;;;;;0.40;0.40;;;11.90;99.90;;;;;;5097225;28;20068;-77
2023/09/03 03:26:52;;;;;;;0.57;0.57;;;11.90;99.90;;;;;;5097125;28;20066;-78
2023/09/03 03:29:18;;;;;;;0.50;0.50;;;11.90;99.90;;;;;;5095948;28;20044;-78
2023/09/03 03:31:44;;;;;;;0.50;0.50;;;11.80;99.90;;;;;;5096969;28;20036;-78
2023/09/03 03:34:09;;;;;;;0.50;0.50;;;12.00;99.90;;;;;;5096880;28;20102;-78
2023/09/03 03:36:35;;;;;;;0.60;0.60;;;11.80;99.90;;;;;;5096911;28;20086;-78
2023/09/03 03:39:00;;;;;;;0.50;0.50;;;11.70;99.90;;;;;;5096803;28;20126;-78
2023/09/03 03:41:26;;;;;;;0.45;0.45;;;11.70;99.90;;;;;;5096866;28;20036;-78
2023/09/03 03:43:52;;;;;;;0.43;0.43;;;11.70;99.90;;;;;;5096708;28;20051;-78
2023/09/03 03:46:19;;;;;;;0.40;0.40;;;11.30;99.90;;;;;;5096757;28;20392;-78
2023/09/03 03:48:46;;;;;;;0.60;0.60;;;11.60;99.90;;;;;;5096637;28;20040;-77
2023/09/03 03:51:13;;;;;;;0.63;0.63;;;11.50;99.90;;;;;;5096588;28;20078;-77
2023/09/03 03:53:39;;;;;;;0.60;0.60;;;11.50;99.90;;;;;;5096847;28;20046;-78
2023/09/03 03:56:06;;;;;;;0.40;0.40;;;11.50;99.90;;;;;;5096583;28;20343;-78
2023/09/03 03:58:37;;;;;;;0.60;0.60;;;11.50;99.90;;;;;;5096405;28;20040;-77
2023/09/03 04:01:16;;;;;;;0.68;0.50;;;12.00;99.90;;;;;;5096370;28;20141;-78
2023/09/03 04:03:43;;;;;;;0.47;0.47;;;11.40;99.90;;;;;;5096948;28;20061;-78
2023/09/03 04:06:09;;;;;;;0.50;0.50;;;11.50;99.90;;;;;;5096283;28;20074;-78
2023/09/03 04:08:37;;;;;;;0.40;0.40;;;11.50;99.90;;;;;;5096216;28;20059;-78
2023/09/03 04:11:05;;;;;;;0.50;0.50;;;11.50;99.90;;;;;;5096209;28;20058;-78
2023/09/03 04:13:31;;;;;;;0.60;0.60;;;11.50;99.90;;;;;;5096094;28;20047;-78
2023/09/03 04:15:57;;;;;;;0.47;0.47;;;11.50;99.90;;;;;;5095848;28;20036;-78
2023/09/03 04:18:24;;;;;;;0.40;0.40;;;11.50;99.90;;;;;;5096107;28;20048;-77
2023/09/03 04:20:53;;;;;;;;;;;11.40;99.90;;;;;;5096890;28;20127;-78
2023/09/03 04:23:20;;;;;;;0.50;0.50;;;11.40;99.90;;;;;;5095778;28;20379;-78
2023/09/03 04:25:45;;;;;;;1.00;0.68;;;11.40;99.90;;;;;;5095081;28;20472;-77
2023/09/03 04:28:11;;;;;;;1.17;1.02;;;11.40;99.90;;;;;;5094953;28;20086;-78
2023/09/03 04:30:38;;;;;;;0.50;0.50;;;11.40;99.90;;;;;;5095568;28;20036;-78
2023/09/03 04:33:06;;;;;;;0.50;0.50;;;11.40;99.90;;;;;;5095927;28;20126;-78
2023/09/03 04:35:32;;;;;;;0.40;0.40;;;11.30;99.90;;;;;;5095815;28;20065;-78
2023/09/03 04:37:57;;;;;;;6.10;1.03;;;11.90;99.90;;;;;;5095727;28;20039;-81
2023/09/03 04:40:24;;;;;;;0.60;0.60;;;11.30;99.90;;;;;;5095749;28;20059;-78
2023/09/03 04:42:50;;;;;;;0.45;0.45;;;11.30;99.90;;;;;;5095855;28;20040;-78
2023/09/03 04:45:15;;;;;;;0.50;0.50;;;11.30;99.90;;;;;;5095394;28;20495;-78
2023/09/03 04:47:41;;;;;;;0.63;0.63;;;11.30;99.90;;;;;;5095484;28;20032;-78
2023/09/03 04:50:07;;;;;;;0.40;0.40;;;11.30;99.90;;;;;;5095086;28;20464;-78
2023/09/03 04:52:34;;;;;;;0.53;0.53;;;11.30;99.90;;;;;;5095346;28;20032;-78
2023/09/03 04:54:59;;;;;;;0.63;0.63;;;11.30;99.90;;;;;;5095311;28;20460;-77
2023/09/03 04:57:25;;;;;;;0.50;0.50;;;11.20;99.90;;;;;;5094380;28;20122;-77
2023/09/03 04:59:52;;;;;;;0.70;0.65;;;11.30;99.90;;;;;;5095176;28;20047;-78
2023/09/03 05:02:17;;;;;;;0.40;0.40;;;11.30;99.90;;;;;;5095752;28;20040;-78
2023/09/03 05:04:43;;;;;;;1.25;0.82;;;11.30;99.90;;;;;;5095072;28;20039;-78
2023/09/03 05:07:09;;;;;;;0.50;0.50;;;11.20;99.90;;;;;;5094936;28;20139;-78
2023/09/03 05:09:34;;;;;;;0.50;0.50;;;11.30;99.90;;;;;;5094906;28;20043;-78
2023/09/03 05:12:00;;;;;;;0.90;0.77;;;11.30;99.90;;;;;;5095091;28;20062;-78
2023/09/03 05:14:25;;;;;;;0.50;0.50;;;11.30;99.90;;;;;;5093601;28;20028;-78
2023/09/03 05:16:51;;;;;;;1.25;1.15;;;11.30;99.90;;;;;;5095401;28;20032;-78
2023/09/03 05:19:17;;;;;;;0.40;0.40;;;11.30;99.90;;;;;;5095115;28;20113;-78
2023/09/03 05:21:42;;;;;;;0.57;0.57;;;11.30;99.90;;;;;;5094783;28;20079;-78
2023/09/03 05:24:10;;;;;;;0.40;0.40;;;11.50;99.90;;;;;;5094950;28;20051;-78
2023/09/03 05:26:36;;;;;;;0.63;0.63;;;11.30;99.90;;;;;;5094714;28;20097;-77
2023/09/03 05:29:02;;;;;;;0.40;0.40;;;11.40;99.90;;;;;;5093454;28;20126;-77
2023/09/03 05:31:30;;;;;;;0.55;0.55;;;11.40;99.90;;;;;;5094627;28;20050;-78
2023/09/03 05:33:56;;;;;;;0.73;0.73;;;11.50;99.90;;;;;;5094729;28;20133;-78
2023/09/03 05:36:22;;;;;;;0.43;0.43;;;11.50;99.90;;;;;;5094447;28;20055;-77
2023/09/03 05:38:47;;;;;;;0.45;0.45;;;11.60;99.90;;;;;;5094056;28;20274;-78
2023/09/03 05:41:14;;;;;;;0.40;0.40;;;11.60;99.90;;;;;;5094463;28;20079;-77
2023/09/03 05:43:40;;;;;;;0.60;0.60;;;11.70;99.90;;;;;;5094375;28;20047;-78
2023/09/03 05:46:06;;;;;;;0.52;0.52;;;11.70;99.90;;;;;;5094297;28;20044;-78
2023/09/03 05:48:31;;;;;;;0.60;0.60;;;11.80;99.90;;;;;;5094797;28;20476;-78
2023/09/03 05:51:05;;;;;;;0.60;0.60;;;11.90;99.90;;;;;;5094321;28;20543;-77
2023/09/03 05:53:35;;;;;;;0.57;0.57;;;11.90;99.90;;;;;;5094013;28;20089;-78
2023/09/03 05:56:07;;;;;;;0.40;0.40;;;12.00;99.90;;;;;;5094200;28;20040;-77
2023/09/03 05:58:33;;;;;;;0.45;0.45;;;12.10;99.90;;;;;;5094065;28;20032;-78
2023/09/03 06:01:06;;;;;;;1.50;0.60;;;12.40;99.90;;;;;;5093840;28;20067;-77
2023/09/03 06:03:32;;;;;;;0.98;0.93;;;12.20;99.90;;;;;;5094127;28;20040;-78
2023/09/03 06:06:11;;;;;;;0.50;0.50;;;12.30;99.90;;;;;;5094216;28;20361;-77
2023/09/03 06:08:38;;;;;;;0.50;0.50;;;12.40;99.90;;;;;;5093540;28;20056;-78
2023/09/03 06:11:05;;;;;;;1.42;0.50;;;12.50;99.90;;;;;;5094054;28;20054;-78
2023/09/03 06:13:32;;;;;;;0.73;0.65;;;12.60;99.90;;;;;;5093526;28;20048;-78
2023/09/03 06:15:58;;;;;;;;;;;12.70;99.90;;;;;;5094696;28;20047;-78
2023/09/03 06:18:24;;;;;;;0.65;0.60;;;12.70;99.90;;;;;;5094104;28;19920;-77
2023/09/03 06:20:53;;;;;;;0.40;0.40;;;12.90;99.90;;;;;;5094521;28;20040;-78
2023/09/03 06:23:20;;;;;;;1.55;0.60;;;12.90;99.90;;;;;;5094380;28;20062;-77
2023/09/03 06:25:46;;;;;;;0.65;0.65;;;13.00;99.90;;;;;;5093202;28;20040;-78
2023/09/03 06:28:12;;;;;;;0.50;0.50;;;13.10;99.90;;;;;;5093823;28;20044;-78
2023/09/03 06:30:38;;;;;;;0.50;0.50;;;13.20;99.90;;;;;;5093880;28;20047;-79
2023/09/03 06:33:04;;;;;;;0.55;0.55;;;13.30;99.90;;;;;;5093949;28;20043;-77
2023/09/03 06:35:30;;;;;;;0.77;0.60;;;13.40;99.90;;;;;;5093830;28;20123;-77
2023/09/03 06:37:55;;;;;;;1.20;0.85;;;13.50;99.90;;;;;;5093586;28;20519;-77
2023/09/03 06:40:22;;;;;;;0.40;0.40;;;13.60;99.90;;;;;;5093612;28;20110;-77
2023/09/03 06:42:48;;;;;;;0.40;0.40;;;13.70;99.90;;;;;;5093597;28;20075;-77
2023/09/03 06:45:13;;;;;;;0.82;0.75;;;13.80;99.90;;;;;;5093760;28;20462;-78
2023/09/03 06:47:39;;;;;;;0.40;0.40;;;13.90;99.90;;;;;;5093604;28;20044;-76
2023/09/03 06:50:06;;;;;;;0.60;0.60;;;14.00;99.90;;;;;;5097439;28;20039;-76
2023/09/03 06:52:32;;;;;;;;;;;14.10;99.90;;;;;;5098003;28;20036;-77
2023/09/03 06:54:58;;;;;;;0.40;0.40;;;14.20;99.90;;;;;;5097273;28;19923;-77
2023/09/03 06:57:24;;;;;;;0.60;0.60;;;14.20;99.90;;;;;;5097584;28;20123;-77
2023/09/03 06:59:50;;;;;;;0.50;0.50;;;14.40;99.90;;;;;;5097652;28;20357;-77
2023/09/03 07:02:16;;;;;;;0.50;0.43;;;14.40;99.90;;;;;;5096149;28;20531;-77
2023/09/03 07:04:41;;;;;;;3.40;0.70;;;14.50;99.90;;;;;;5097483;28;20352;-77
2023/09/03 07:07:08;;;;;;;0.50;0.50;;;14.70;99.90;;;;;;5097241;28;20067;-77
2023/09/03 07:09:34;;;;;;;0.93;0.55;;;14.60;99.90;;;;;;5097376;28;20356;-77
2023/09/03 07:12:00;;;;;;;0.40;0.40;;;14.70;99.90;;;;;;5098250;28;20043;-77
2023/09/03 07:14:26;;;;;;;0.40;0.40;;;14.80;99.90;;;;;;5097204;28;20040;-77
2023/09/03 07:16:52;;;;;;;0.40;0.40;;;15.00;99.90;;;;;;5097225;28;20040;-77
2023/09/03 07:19:18;;;;;;;0.40;0.40;;;15.00;99.90;;;;;;5097233;28;20119;-77
2023/09/03 07:21:44;;;;;;;0.35;0.35;;;15.20;99.90;;;;;;5097084;28;20525;-77
2023/09/03 07:24:10;;;;;;;0.40;0.40;;;15.30;99.90;;;;;;5097150;28;20035;-77
2023/09/03 07:26:36;;;;;;;0.40;0.40;;;15.50;99.90;;;;;;5097031;28;20069;-78
2023/09/03 07:29:02;;;;;;;0.40;0.40;;;15.60;99.90;;;;;;5097164;28;20044;-78
2023/09/03 07:31:28;;;;;;;0.40;0.40;;;15.80;99.90;;;;;;5097011;28;20502;-77
2023/09/03 07:33:53;;;;;;;0.70;0.70;;;15.90;99.90;;;;;;5097254;28;20040;-77
2023/09/03 07:36:19;;;;;;;0.40;0.40;;;16.00;99.90;;;;;;5097250;28;20533;-78
2023/09/03 07:38:44;;;;;;;0.40;0.40;;;16.10;99.90;;;;;;5096776;28;20075;-78
2023/09/03 07:41:10;;;;;;;0.37;0.37;;;16.20;99.90;;;;;;5096877;28;20040;-78
2023/09/03 07:43:36;;;;;;;0.30;0.30;;;16.40;99.90;;;;;;5096800;28;20040;-78
2023/09/03 07:46:01;;;;;;;0.77;0.60;;;16.50;99.90;;;;;;5096749;28;20040;-78
2023/09/03 07:48:27;;;;;;;0.40;0.40;;;16.60;99.90;;;;;;5096695;28;20075;-78
2023/09/03 07:50:53;;;;;;;0.30;0.30;;;16.70;99.90;;;;;;5096779;28;20047;-78
2023/09/03 07:53:19;;;;;;;0.50;0.50;;;16.90;99.90;;;;;;5096556;28;20035;-77
2023/09/03 07:55:44;;;;;;;0.30;0.30;;;17.00;99.90;;;;;;5096236;28;20368;-78
2023/09/03 07:58:10;;;;;;;0.40;0.40;;;17.20;99.90;;;;;;5096481;28;20054;-77
2023/09/03 08:00:36;;;;;;;0.30;0.30;;;17.30;99.90;;;;;;5095460;28;20043;-77
2023/09/03 08:03:02;;;;;;;0.40;0.40;;;17.40;99.90;;;;;;5096538;28;20036;-77
2023/09/03 08:05:28;;;;;;;0.50;0.50;;;17.40;99.90;;;;;;5096454;28;20376;-77
2023/09/03 08:07:54;;;;;;;0.47;0.40;;;17.50;99.90;;;;;;5096027;28;20044;-78
2023/09/03 08:10:19;;;;;;;0.40;0.40;;;17.60;99.90;;;;;;5096019;28;20039;-78
2023/09/03 08:12:45;;;;;;;0.40;0.40;;;17.60;99.90;;;;;;5096270;28;20040;-78
2023/09/03 08:15:11;;;;;;;0.50;0.50;;;17.70;99.90;;;;;;5096674;28;20122;-77
2023/09/03 08:17:37;;;;;;;0.32;0.32;;;17.80;99.90;;;;;;5094985;28;20047;-77
2023/09/03 08:20:06;;;;;;;0.67;0.67;;;17.80;99.90;;;;;;5095951;28;20044;-79
2023/09/03 08:22:31;;;;;;;0.75;0.60;;;17.80;99.90;;;;;;5096092;28;20044;-78
2023/09/03 08:24:57;;;;;;;0.40;0.40;;;17.90;99.90;;;;;;5096031;28;20039;-77
2023/09/03 08:27:22;;;;;;;0.30;0.30;;;17.90;99.90;;;;;;5096003;28;20043;-78
2023/09/03 08:29:48;;;;;;;0.50;0.50;;;17.90;99.90;;;;;;5095864;28;20047;-77
2023/09/03 08:32:14;;;;;;;0.30;0.30;;;18.00;99.90;;;;;;5095887;28;20051;-78
2023/09/03 08:34:39;;;;;;;0.37;0.37;;;18.00;99.90;;;;;;5095810;28;20044;-77
2023/09/03 08:37:05;;;;;;;0.77;0.67;;;18.10;99.90;;;;;;5095691;28;20464;-77
2023/09/03 08:39:30;;;;;;;0.57;0.57;;;18.10;99.90;;;;;;5095687;28;20044;-78
2023/09/03 08:41:57;;;;;;;0.57;0.57;;;18.20;99.90;;;;;;5095701;28;20043;-78
2023/09/03 08:44:36;;;;;;;0.60;0.50;;;18.20;99.90;;;;;;5095552;28;20035;-78
2023/09/03 08:47:03;;;;;;;0.30;0.30;;;18.10;99.90;;;;;;5095813;28;20036;-77
2023/09/03 08:49:31;;;;;;;0.52;0.40;;;18.10;99.90;;;;;;5095460;28;20460;-77
2023/09/03 08:51:58;;;;;;;0.35;0.35;;;18.10;99.90;;;;;;5095413;28;20033;-77
2023/09/03 08:54:24;;;;;;;0.40;0.40;;;18.10;99.90;;;;;;5094279;28;20448;-77
2023/09/03 08:56:50;;;;;;;0.38;0.38;;;18.10;99.90;;;;;;5095427;28;20051;-78
2023/09/03 08:59:16;;;;;;;0.40;0.40;;;18.30;99.90;;;;;;5095525;28;20036;-77
2023/09/03 09:01:44;;;;;;;0.40;0.40;;;18.30;99.90;;;;;;5095250;28;20032;-78
2023/09/03 09:04:12;;;;;;;0.40;0.40;;;18.40;99.90;;;;;;5095350;28;20371;-78
2023/09/03 09:06:39;;;;;;;0.30;0.30;;;18.50;99.90;;;;;;5094197;28;20105;-78
2023/09/03 09:09:06;;;;;;;0.30;0.30;;;18.50;99.90;;;;;;5094783;28;20059;-77
2023/09/03 09:11:38;;;;;;;0.30;0.30;;;18.50;99.90;;;;;;5094838;28;20073;-77
2023/09/03 09:14:11;;;;;;;0.28;0.28;;;18.50;99.90;;;;;;5095361;28;20086;-77
2023/09/03 09:16:38;;;;;;;0.30;0.30;;;18.60;99.90;;;;;;5095189;28;20040;-78
2023/09/03 09:19:04;;;;;;;0.60;0.40;;;18.70;99.90;;;;;;5093727;28;20048;-78
2023/09/03 09:21:31;;;;;;;0.30;0.30;;;18.80;99.90;;;;;;5095071;28;20036;-80
2023/09/03 09:24:01;;;;;;;0.40;0.40;;;18.90;99.90;;;;;;5095177;28;20040;-78
2023/09/03 09:26:31;;;;;;;0.30;0.30;;;19.10;99.90;;;;;;5095169;28;20101;-79
2023/09/03 09:29:01;;;;;;;0.30;0.30;;;19.20;99.90;;;;;;5095123;28;20044;-77
2023/09/03 09:31:31;;;;;;;0.32;0.30;;;19.30;99.90;;;;;;5093840;28;20040;-78
2023/09/03 09:33:58;;;;;;;0.38;0.38;;;19.30;99.90;;;;;;5095424;28;20036;-77
2023/09/03 09:36:24;;;;;;;0.75;0.60;;;19.40;99.90;;;;;;5095428;28;20177;-77
2023/09/03 09:38:51;;;;;;;0.40;0.40;;;19.40;99.90;;;;;;5095540;28;20142;-78
2023/09/03 09:41:26;;;;;;;0.40;0.40;;;19.40;99.90;;;;;;5095620;28;20067;-78
2023/09/03 09:43:53;;;;;;;0.35;0.35;;;19.40;99.90;;;;;;5094777;28;20036;-78
2023/09/03 09:46:29;;;;;;;0.47;0.47;;;19.50;99.90;;;;;;5095637;28;20051;-78
2023/09/03 09:48:56;;;;;;;0.30;0.30;;;19.50;99.90;;;;;;5095114;28;20062;-78
2023/09/03 09:51:22;;;;;;;0.75;0.40;;;19.60;99.90;;;;;;5094719;28;20380;-78
2023/09/03 09:54:02;;;;;;;0.30;0.30;;;19.70;99.90;;;;;;5094576;28;20039;-78
2023/09/03 09:56:29;;;;;;;0.30;0.30;;;19.60;99.90;;;;;;5094196;28;20050;-77
2023/09/03 09:58:57;;;;;;;0.30;0.30;;;19.70;99.90;;;;;;5094084;28;20036;-77
2023/09/03 10:01:25;;;;;;;0.30;0.30;;;19.90;99.90;;;;;;5094102;28;20044;-78
2023/09/03 10:03:51;;;;;;;0.30;0.30;;;20.00;99.90;;;;;;5094292;28;20093;-77
2023/09/03 10:06:18;;;;;;;0.30;0.30;;;20.10;99.90;;;;;;5094060;28;20124;-77
2023/09/03 10:08:45;;;;;;;0.35;0.35;;;20.20;99.90;;;;;;5093470;28;20395;-78
2023/09/03 10:11:11;;;;;;;0.30;0.30;;;20.20;99.90;;;;;;5094009;28;20111;-78
2023/09/03 10:13:41;;;;;;;0.30;0.30;;;20.20;99.90;;;;;;5094007;28;20043;-77
2023/09/03 10:16:09;;;;;;;0.30;0.30;;;20.30;99.90;;;;;;5093963;28;20102;-77
2023/09/03 10:18:57;;;;;;;0.77;0.50;;;20.30;99.90;;;;;;5093891;28;20052;-78
2023/09/03 10:21:25;;;;;;;;;;;20.40;99.90;;;;;;5094289;28;20396;-77
2023/09/03 10:23:52;;;;;;;0.20;0.20;;;20.50;99.90;;;;;;5092096;28;19920;-77
2023/09/03 10:26:37;;;;;;;0.35;0.35;;;20.50;99.90;;;;;;5127325;27;20040;-78
2023/09/03 10:29:07;;;;;;;0.65;0.50;;;20.60;99.90;;;;;;5093973;28;20040;-77
2023/09/03 10:31:35;;;;;;;0.40;0.40;;;20.60;99.90;;;;;;5093579;28;20360;-77
2023/09/03 10:34:00;;;;;;;0.30;0.30;;;20.60;99.90;;;;;;5093798;28;20050;-78
2023/09/03 10:36:26;;;;;;;0.20;0.20;;;20.60;99.90;;;;;;5093722;28;20118;-77
2023/09/03 10:38:52;;;;;;;0.30;0.30;;;20.70;99.90;;;;;;5094047;28;20044;-77
2023/09/03 10:41:22;;;;;;;0.33;0.33;;;20.60;99.90;;;;;;5093683;28;20050;-78
2023/09/03 10:43:53;;;;;;;0.20;0.20;;;20.70;99.90;;;;;;5093651;28;20083;-78
2023/09/03 10:46:22;;;;;;;0.55;0.30;;;20.80;99.90;;;;;;5093716;28;20045;-78
2023/09/03 10:48:57;;;;;;;0.35;0.35;;;20.90;99.90;;;;;;5093620;28;20048;-77
2023/09/03 10:51:30;;;;;;;0.30;0.30;;;20.90;99.90;;;;;;5094088;28;20070;-77
2023/09/03 10:54:13;;;;;;;0.30;0.30;;;21.00;99.90;;;;;;5093538;28;20446;-78
2023/09/03 10:57:05;;;;;;;0.30;0.30;;;21.00;99.90;;;;;;5092720;28;20036;-77
2023/09/03 10:59:58;;;;;;;0.22;0.22;;;21.10;99.90;;;;;;5093726;28;20043;-78
2023/09/03 11:02:25;;;;;;;0.30;0.30;;;21.10;99.90;;;;;;5093537;28;20123;-77
2023/09/03 11:05:09;;;;;;;;;;;21.20;99.90;;;;;;5093811;28;20040;-77
2023/09/03 11:07:35;;;;;;;0.30;0.30;;;21.30;99.90;;;;;;5093975;28;19916;-77
2023/09/03 11:10:27;;;;;;;0.40;0.40;;;21.30;99.90;;;;;;5093396;28;20498;-78
2023/09/03 11:12:54;;;;;;;0.45;0.30;;;21.30;99.90;;;;;;5093802;28;20065;-77
2023/09/03 11:15:20;;;;;;;0.30;0.30;;;21.50;99.90;;;;;;5093350;28;20086;-78
2023/09/03 11:17:54;;;;;;;0.30;0.30;;;21.50;99.90;;;;;;5093256;28;20028;-77
2023/09/03 11:20:34;;;;;;;0.32;0.32;;;21.50;99.90;;;;;;5093211;28;20044;-77
2023/09/03 11:23:01;;;;;;;0.35;0.35;;;21.50;99.90;;;;;;5093291;28;20032;-77
2023/09/03 11:25:35;;;;;;;0.30;0.30;;;21.60;99.90;;;;;;5093170;28;20037;-77
2023/09/03 11:28:02;;;;;;;0.30;0.30;;;21.70;99.90;;;;;;5093423;28;20047;-77
2023/09/03 11:30:28;;;;;;;0.30;0.30;;;21.80;99.90;;;;;;5093207;28;20166;-77
2023/09/03 11:32:54;;;;;;;0.20;0.20;;;21.80;99.90;;;;;;5093143;28;20047;-78
2023/09/03 11:35:20;;;;;;;0.37;0.33;;;21.90;99.90;;;;;;5093943;28;20036;-77
2023/09/03 11:37:46;;;;;;;0.20;0.20;;;21.90;99.90;;;;;;5097215;28;20046;-77
2023/09/03 11:40:12;;;;;;;0.20;0.20;;;22.00;99.90;;;;;;5096776;28;20454;-78
2023/09/03 11:42:41;;;;;;;0.28;0.28;;;22.00;99.90;;;;;;5097061;28;20126;-78
2023/09/03 11:45:09;;;;;;;0.30;0.30;;;22.00;99.90;;;;;;5096848;28;20040;-78
2023/09/03 11:47:38;;;;;;;0.38;0.38;;;22.10;99.90;;;;;;5096631;28;20044;-78
2023/09/03 11:50:13;;;;;;;0.30;0.30;;;22.10;99.90;;;;;;5096622;28;20093;-78
2023/09/03 11:52:41;;;;;;;0.57;0.40;;;22.10;99.90;;;;;;5096688;28;20047;-78
2023/09/03 11:55:07;;;;;;;0.35;0.35;;;22.00;99.90;;;;;;5096475;28;20144;-78
2023/09/03 11:57:36;;;;;;;0.20;0.20;;;22.00;99.90;;;;;;5095489;28;20479;-78
2023/09/03 12:00:03;;;;;;;0.20;0.20;;;22.00;99.90;;;;;;5096459;28;20278;-77
2023/09/03 12:02:30;;;;;;;0.30;0.30;;;22.00;99.90;;;;;;5096175;28;20048;-78
2023/09/03 12:04:56;;;;;;;0.30;0.30;;;22.00;99.90;;;;;;5097246;28;20105;-77
2023/09/03 12:07:21;;;;;;;0.30;0.30;;;22.10;99.90;;;;;;5096185;28;20040;-78
2023/09/03 12:09:50;;;;;;;0.33;0.33;;;22.20;99.90;;;;;;5096548;28;20498;-78
2023/09/03 12:12:17;;;;;;;0.38;0.38;;;22.30;99.90;;;;;;5096324;28;20032;-78
2023/09/03 12:14:43;;;;;;;0.30;0.30;;;22.40;99.90;;;;;;5096125;28;20046;-78
2023/09/03 12:17:09;;;;;;;0.30;0.30;;;22.50;99.90;;;;;;5096216;28;20127;-78
2023/09/03 12:19:41;;;;;;;0.30;0.30;;;22.50;99.90;;;;;;5096178;28;20036;-78
2023/09/03 12:22:07;;;;;;;0.20;0.20;;;22.50;99.90;;;;;;5095991;28;20490;-78
2023/09/03 12:24:33;;;;;;;0.30;0.30;;;22.60;99.90;;;;;;5095960;28;20376;-77
2023/09/03 12:27:03;;;;;;;0.30;0.30;;;22.60;99.90;;;;;;5096257;28;20032;-78
2023/09/03 12:29:36;;;;;;;0.30;0.30;;;22.60;99.90;;;;;;5096403;28;20274;-78
2023/09/03 12:32:14;;;;;;;0.30;0.30;;;22.60;99.90;;;;;;5096248;28;20044;-78
2023/09/03 12:34:40;;;;;;;0.40;0.40;;;22.60;99.90;;;;;;5096139;28;20028;-78
2023/09/03 12:37:07;;;;;;;0.30;0.30;;;22.60;99.90;;;;;;5095831;28;20089;-78
2023/09/03 12:39:34;;;;;;;0.30;0.30;;;22.60;99.90;;;;;;5095801;28;20052;-78
2023/09/03 12:42:02;;;;;;;0.55;0.40;;;22.60;99.90;;;;;;5095399;28;20122;-78
2023/09/03 12:44:28;;;;;;;0.50;0.40;;;22.70;99.90;;;;;;5094989;28;20068;-78
2023/09/03 12:46:55;;;;;;;0.47;0.47;;;22.60;99.90;;;;;;5095048;28;20086;-78
2023/09/03 12:49:21;;;;;;;0.30;0.30;;;22.60;99.90;;;;;;5095521;28;20411;-78
2023/09/03 12:51:47;;;;;;;1.07;0.40;;;22.50;99.90;;;;;;5095522;28;20043;-78